Kalaeloa (John Rodgers Field) Information

FAA: JRF - ICAO: PHJR

Kalaeloa (John Rodgers Field) (Airport) Location

State Hawaii
County Honolulu
City Kapolei
Kalaeloa (John Rodgers Field) (Airport) is 2 miles south of Kapolei, HI.
Latitude 21-18-26.4740N
Longitude 158-04-13.0860W
Elevation 30ft

Kalaeloa (John Rodgers Field) METARs

METAR PHJR 200353Z 05006KT 10SM CLR 27/16 A3003 RMK AO2 SLP176 T02670161
Altimeter 30.03"
Temperature 26.7°C (80.1°F)
Wind 50° at 6KT
Clouds Skies are clear.
Visibility 10.0mi
Time observed: 2021-10-20T03:53:00Z

Kalaeloa (John Rodgers Field) (Airport) Details

Status Operational
Activation September 1946
Ownership Public
Usage Public
Chart HAWAIIAN ISLANDS
ATC on-site Yes
Beacon schedule sunset-sunrise
Beacon color clear green

Kalaeloa (John Rodgers Field) (Airport) Contacts

Owner HAWAII STATE AIRPORTS DIVISION
Owner address 400 RODGERS BLVD, SUITE 700, HONOLULU, HI 96819-1880
Owner phone 808-838-8600
Manager SHARLENE MANGLONA
Manager address PO BOX 561, ROTA, MP 96951
Manager phone 670-532-9497

Kalaeloa (John Rodgers Field) Radio Frequencies

Kalaeloa (John Rodgers Field) (Airport) Radio Frequencies

UNICOM N/A
Common traffic advisory frequency (CTAF) 132.6